createdAt,value
2023-05-03T00:00:39.152Z,23.84
2023-05-03T00:01:39.223Z,23.85
2023-05-03T00:02:39.495Z,23.84
2023-05-03T00:03:39.134Z,23.84
2023-05-03T00:04:39.204Z,23.84
2023-05-03T00:05:39.355Z,23.84
2023-05-03T00:06:39.316Z,23.84
2023-05-03T00:07:39.309Z,23.84
2023-05-03T00:08:39.317Z,23.83
2023-05-03T00:09:39.320Z,23.83
2023-05-03T00:10:39.357Z,23.83
2023-05-03T00:11:39.562Z,23.83
2023-05-03T00:12:39.466Z,23.83
2023-05-03T00:13:39.486Z,23.83
2023-05-03T00:14:39.479Z,23.83
2023-05-03T00:15:39.508Z,23.84
2023-05-03T00:16:39.533Z,23.83
2023-05-03T00:17:39.597Z,23.84
2023-05-03T00:18:39.503Z,23.83
2023-05-03T00:19:39.492Z,23.83
2023-05-03T00:20:39.493Z,23.83
2023-05-03T00:21:39.579Z,23.83
2023-05-03T00:22:39.531Z,23.84
2023-05-03T00:23:39.568Z,23.83
2023-05-03T00:24:39.698Z,23.82
2023-05-03T00:25:39.546Z,23.83
2023-05-03T00:26:39.558Z,23.83
2023-05-03T00:27:39.586Z,23.82
2023-05-03T00:28:39.574Z,23.82
2023-05-03T00:29:39.625Z,23.82
2023-05-03T00:30:39.638Z,23.82
2023-05-03T00:31:39.759Z,23.82
2023-05-03T00:32:39.688Z,23.82
2023-05-03T00:33:39.720Z,23.82
2023-05-03T00:34:39.734Z,23.81
2023-05-03T00:35:39.741Z,23.81
2023-05-03T00:36:39.729Z,23.81
2023-05-03T00:37:39.735Z,23.81
2023-05-03T00:38:39.793Z,23.81
2023-05-03T00:39:39.779Z,23.82
2023-05-03T00:40:39.810Z,23.81
2023-05-03T00:41:39.817Z,23.81
2023-05-03T00:42:39.956Z,23.81
2023-05-03T00:43:39.859Z,23.80
2023-05-03T00:44:39.897Z,23.81
2023-05-03T00:45:39.951Z,23.81
2023-05-03T00:46:39.987Z,23.79
2023-05-03T00:47:40.196Z,23.80
2023-05-03T00:48:39.964Z,23.81
2023-05-03T00:49:40.032Z,23.80
2023-05-03T00:50:40.015Z,23.80
2023-05-03T00:51:40.072Z,23.79
2023-05-03T00:52:40.055Z,23.80
2023-05-03T00:53:40.064Z,23.79
2023-05-03T00:54:40.061Z,23.79
2023-05-03T00:55:40.070Z,23.80
2023-05-03T00:56:48.320Z,23.79
2023-05-03T00:57:41.085Z,23.78
2023-05-03T00:58:40.216Z,23.78
2023-05-03T00:59:40.035Z,23.79
2023-05-03T01:00:40.108Z,23.79
2023-05-03T01:01:40.102Z,23.79
2023-05-03T01:02:40.176Z,23.79
2023-05-03T01:03:40.202Z,23.78
2023-05-03T01:04:42.935Z,23.78
2023-05-03T01:05:39.995Z,23.78
2023-05-03T01:06:40.046Z,23.79
2023-05-03T01:07:40.007Z,23.78
2023-05-03T01:08:40.003Z,23.78
2023-05-03T01:09:40.006Z,23.78
2023-05-03T01:10:39.984Z,23.78
2023-05-03T01:11:39.983Z,23.78
2023-05-03T01:12:39.993Z,23.78
2023-05-03T01:13:39.965Z,23.78
2023-05-03T01:14:40.037Z,23.78
2023-05-03T01:15:39.946Z,23.78
2023-05-03T01:16:40.046Z,23.77
2023-05-03T01:17:40.013Z,23.78
2023-05-03T01:18:39.928Z,23.78
2023-05-03T01:19:39.928Z,23.78
2023-05-03T01:20:39.940Z,23.78
2023-05-03T01:21:39.876Z,23.77
2023-05-03T01:22:39.892Z,23.77
2023-05-03T01:23:39.901Z,23.77
2023-05-03T01:24:39.913Z,23.78
2023-05-03T01:25:39.868Z,23.77
2023-05-03T01:26:39.879Z,23.77
2023-05-03T01:27:39.838Z,23.76
2023-05-03T01:28:39.908Z,23.77
2023-05-03T01:29:39.834Z,23.77
2023-05-03T01:30:39.843Z,23.76
2023-05-03T01:31:39.870Z,23.77
2023-05-03T01:32:39.851Z,23.77
2023-05-03T01:33:39.784Z,23.76
2023-05-03T01:34:39.834Z,23.77
2023-05-03T01:35:39.812Z,23.77
2023-05-03T01:36:39.791Z,23.76
2023-05-03T01:37:39.791Z,23.76
2023-05-03T01:38:39.801Z,23.76
2023-05-03T01:39:39.762Z,23.75
2023-05-03T01:40:39.788Z,23.75
2023-05-03T01:41:39.775Z,23.75
2023-05-03T01:42:39.790Z,23.76
2023-05-03T01:43:39.727Z,23.75
2023-05-03T01:44:39.740Z,23.76
2023-05-03T01:45:39.793Z,23.75
2023-05-03T01:46:39.713Z,23.75
2023-05-03T01:47:39.721Z,23.75
2023-05-03T01:48:39.693Z,23.75
2023-05-03T01:49:39.685Z,23.75
2023-05-03T01:50:39.718Z,23.74
2023-05-03T01:51:39.698Z,23.75
2023-05-03T01:52:39.690Z,23.74
2023-05-03T01:53:39.649Z,23.74
2023-05-03T01:54:39.703Z,23.75
2023-05-03T01:55:39.640Z,23.75
2023-05-03T01:56:39.810Z,23.75
2023-05-03T01:57:39.642Z,23.74
2023-05-03T01:58:39.648Z,23.74
2023-05-03T01:59:39.641Z,23.74
2023-05-03T02:00:39.636Z,23.74
2023-05-03T02:01:39.646Z,23.74
2023-05-03T02:02:39.686Z,23.74
2023-05-03T02:03:39.625Z,23.74
2023-05-03T02:04:39.664Z,23.74
2023-05-03T02:05:39.563Z,23.74
2023-05-03T02:06:39.590Z,23.74
2023-05-03T02:07:39.584Z,23.74
2023-05-03T02:08:39.568Z,23.74
2023-05-03T02:09:39.602Z,23.73
2023-05-03T02:10:39.536Z,23.73
2023-05-03T02:11:39.574Z,23.72
2023-05-03T02:12:39.573Z,23.73
2023-05-03T02:13:39.524Z,23.73
2023-05-03T02:14:39.521Z,23.73
2023-05-03T02:15:39.537Z,23.73
2023-05-03T02:16:39.492Z,23.74
2023-05-03T02:17:39.538Z,23.73
2023-05-03T02:18:39.486Z,23.73
2023-05-03T02:19:39.469Z,23.73
2023-05-03T02:20:39.496Z,23.73
2023-05-03T02:21:39.470Z,23.72
2023-05-03T02:22:39.478Z,23.72
2023-05-03T02:23:39.428Z,23.72
2023-05-03T02:24:39.426Z,23.72
2023-05-03T02:25:39.461Z,23.72
2023-05-03T02:26:39.426Z,23.72
2023-05-03T02:27:39.420Z,23.72
2023-05-03T02:28:39.417Z,23.72
2023-05-03T02:29:39.424Z,23.72
2023-05-03T02:30:39.455Z,23.71
2023-05-03T02:31:39.393Z,23.72
2023-05-03T02:32:39.360Z,23.72
2023-05-03T02:33:39.344Z,23.71
2023-05-03T02:34:39.365Z,23.72
2023-05-03T02:35:39.331Z,23.72
2023-05-03T02:36:39.357Z,23.72
2023-05-03T02:37:39.312Z,23.72
2023-05-03T02:38:39.318Z,23.72
2023-05-03T02:39:39.301Z,23.72
2023-05-03T02:40:39.293Z,23.71
2023-05-03T02:41:39.302Z,23.71
2023-05-03T02:42:39.316Z,23.71
2023-05-03T02:43:39.334Z,23.71
2023-05-03T02:44:39.287Z,23.70
2023-05-03T02:45:39.262Z,23.71
2023-05-03T02:46:39.403Z,23.71
2023-05-03T02:47:39.292Z,23.70
2023-05-03T02:48:39.251Z,23.71
2023-05-03T02:49:39.277Z,23.71
2023-05-03T02:50:39.261Z,23.70
2023-05-03T02:51:39.221Z,23.70
2023-05-03T02:52:39.222Z,23.69
2023-05-03T02:53:39.230Z,23.69
2023-05-03T02:54:39.245Z,23.70
2023-05-03T02:55:39.267Z,23.69
2023-05-03T02:56:39.202Z,23.69
2023-05-03T02:57:40.303Z,23.70
2023-05-03T02:58:39.164Z,23.69
2023-05-03T02:59:39.187Z,23.69
2023-05-03T03:00:39.177Z,23.70
2023-05-03T03:01:39.226Z,23.69
2023-05-03T03:02:39.272Z,23.70
2023-05-03T03:03:39.179Z,23.69
2023-05-03T03:04:39.161Z,23.69
2023-05-03T03:05:39.157Z,23.69
2023-05-03T03:06:39.187Z,23.69
2023-05-03T03:07:39.159Z,23.69
2023-05-03T03:08:39.109Z,23.68
2023-05-03T03:09:39.088Z,23.69
2023-05-03T03:10:39.089Z,23.68
2023-05-03T03:11:39.060Z,23.68
2023-05-03T03:12:39.060Z,23.68
2023-05-03T03:13:39.103Z,23.68
2023-05-03T03:14:39.075Z,23.67
2023-05-03T03:15:39.075Z,23.67
2023-05-03T03:16:39.092Z,23.68
2023-05-03T03:17:39.146Z,23.68
2023-05-03T03:18:39.050Z,23.68
2023-05-03T03:19:39.015Z,23.68
2023-05-03T03:20:39.059Z,23.68
2023-05-03T03:21:39.020Z,23.68
2023-05-03T03:22:39.000Z,23.68
2023-05-03T03:23:39.021Z,23.68
2023-05-03T03:24:39.044Z,23.68
2023-05-03T03:25:38.991Z,23.67
2023-05-03T03:26:39.005Z,23.67
2023-05-03T03:27:39.870Z,23.67
2023-05-03T03:28:38.968Z,23.67
2023-05-03T03:29:38.934Z,23.68
2023-05-03T03:30:38.985Z,23.67
2023-05-03T03:31:38.960Z,23.67
2023-05-03T03:32:39.000Z,23.67
2023-05-03T03:33:38.939Z,23.66
2023-05-03T03:34:38.908Z,23.67
2023-05-03T03:35:38.955Z,23.67
2023-05-03T03:36:38.946Z,23.67
2023-05-03T03:37:38.931Z,23.67
2023-05-03T03:38:38.877Z,23.67
2023-05-03T03:39:38.878Z,23.67
2023-05-03T03:40:38.850Z,23.67
2023-05-03T03:41:38.903Z,23.67
2023-05-03T03:42:38.861Z,23.67
2023-05-03T03:43:38.862Z,23.67
2023-05-03T03:44:38.876Z,23.67
2023-05-03T03:45:38.860Z,23.67
2023-05-03T03:46:38.941Z,23.66
2023-05-03T03:47:38.846Z,23.66
2023-05-03T03:48:38.888Z,23.67
2023-05-03T03:49:38.867Z,23.66
2023-05-03T03:50:38.853Z,23.67
2023-05-03T03:51:38.881Z,23.66
2023-05-03T03:52:38.881Z,23.67
2023-05-03T03:53:38.884Z,23.66
2023-05-03T03:54:38.887Z,23.66
2023-05-03T03:55:38.884Z,23.66
2023-05-03T03:56:38.969Z,23.66
2023-05-03T03:57:38.972Z,23.66
2023-05-03T03:58:38.913Z,23.66
2023-05-03T03:59:38.925Z,23.66
2023-05-03T04:00:38.913Z,23.66
2023-05-03T04:01:38.978Z,23.65
2023-05-03T04:02:39.202Z,23.65
2023-05-03T04:03:39.075Z,23.65
2023-05-03T04:04:38.947Z,23.65
2023-05-03T04:05:38.969Z,23.66
2023-05-03T04:06:39.044Z,23.67
2023-05-03T04:07:39.001Z,23.67
2023-05-03T04:08:39.044Z,23.67
2023-05-03T04:09:39.056Z,23.68
2023-05-03T04:10:39.067Z,23.67
2023-05-03T04:11:39.225Z,23.68
2023-05-03T04:12:39.063Z,23.67
2023-05-03T04:13:39.081Z,23.67
2023-05-03T04:14:39.051Z,23.67
2023-05-03T04:15:39.091Z,23.67
2023-05-03T04:16:39.133Z,23.66
2023-05-03T04:17:39.141Z,23.66
2023-05-03T04:18:39.085Z,23.66
2023-05-03T04:19:39.182Z,23.65
2023-05-03T04:20:39.125Z,23.65
2023-05-03T04:21:39.059Z,23.65
2023-05-03T04:22:39.054Z,23.66
2023-05-03T04:23:39.097Z,23.65
2023-05-03T04:24:39.102Z,23.65
2023-05-03T04:25:39.059Z,23.64
2023-05-03T04:26:39.171Z,23.63
2023-05-03T04:27:39.104Z,23.63
2023-05-03T04:28:39.151Z,23.62
2023-05-03T04:29:39.111Z,23.62
2023-05-03T04:30:39.180Z,23.60
2023-05-03T04:31:39.134Z,23.59
2023-05-03T04:32:39.236Z,23.57
2023-05-03T04:33:39.218Z,23.56
2023-05-03T04:34:39.212Z,23.56
2023-05-03T04:35:39.270Z,23.55
2023-05-03T04:36:39.276Z,23.55
2023-05-03T04:37:39.281Z,23.55
2023-05-03T04:38:39.283Z,23.54
2023-05-03T04:39:39.459Z,23.55
2023-05-03T04:40:39.304Z,23.55
2023-05-03T04:41:39.317Z,23.55
2023-05-03T04:42:39.298Z,23.56
2023-05-03T04:43:39.325Z,23.56
2023-05-03T04:44:39.324Z,23.56
2023-05-03T04:45:39.336Z,23.56
2023-05-03T04:46:39.352Z,23.55
2023-05-03T04:47:39.376Z,23.56
2023-05-03T04:48:39.341Z,23.57
2023-05-03T04:49:39.501Z,23.57
2023-05-03T04:50:39.328Z,23.57
2023-05-03T04:51:39.377Z,23.57
2023-05-03T04:52:39.443Z,23.57
2023-05-03T04:53:39.419Z,23.57
2023-05-03T04:54:39.459Z,23.57
2023-05-03T04:55:39.456Z,23.58
2023-05-03T04:56:39.514Z,23.58
2023-05-03T04:57:39.570Z,23.58
2023-05-03T04:58:39.569Z,23.57
2023-05-03T04:59:39.550Z,23.58
2023-05-03T05:00:39.590Z,23.58
2023-05-03T05:01:39.702Z,23.58
2023-05-03T05:02:39.857Z,23.57
2023-05-03T05:03:39.714Z,23.57
2023-05-03T05:04:39.697Z,23.58
2023-05-03T05:05:39.660Z,23.59
2023-05-03T05:06:39.758Z,23.59
2023-05-03T05:07:39.697Z,23.59
2023-05-03T05:08:39.721Z,23.59
2023-05-03T05:09:39.757Z,23.59
2023-05-03T05:10:39.811Z,23.58
2023-05-03T05:11:39.814Z,23.58
2023-05-03T05:12:39.854Z,23.59
2023-05-03T05:13:39.835Z,23.59
2023-05-03T05:14:39.861Z,23.59
2023-05-03T05:15:39.907Z,23.58
2023-05-03T05:16:40.035Z,23.59
2023-05-03T05:17:40.022Z,23.59
2023-05-03T05:18:39.893Z,23.58
2023-05-03T05:19:39.907Z,23.59
2023-05-03T05:20:39.898Z,23.59
2023-05-03T05:21:39.928Z,23.59
2023-05-03T05:22:39.931Z,23.60
2023-05-03T05:23:39.885Z,23.60
2023-05-03T05:24:39.944Z,23.60
2023-05-03T05:25:39.921Z,23.61
2023-05-03T05:26:39.934Z,23.62
2023-05-03T05:27:39.928Z,23.63
2023-05-03T05:28:39.943Z,23.64
2023-05-03T05:29:39.930Z,23.64
2023-05-03T05:30:39.963Z,23.64
2023-05-03T05:31:40.025Z,23.63
2023-05-03T05:32:40.037Z,23.63
2023-05-03T05:33:39.924Z,23.64
2023-05-03T05:34:45.618Z,23.64
2023-05-03T05:35:40.931Z,23.62
2023-05-03T05:36:40.014Z,23.60
2023-05-03T05:37:39.927Z,23.56
2023-05-03T05:38:39.912Z,23.49
2023-05-03T05:39:39.948Z,23.39
2023-05-03T05:40:39.905Z,23.24
2023-05-03T05:41:39.983Z,23.12
2023-05-03T05:42:39.919Z,23.06
2023-05-03T05:43:39.889Z,23.01
2023-05-03T05:44:39.884Z,22.98
2023-05-03T05:45:39.909Z,22.96
2023-05-03T05:46:39.901Z,22.96
2023-05-03T05:47:39.882Z,22.96
2023-05-03T05:48:39.875Z,22.99
2023-05-03T05:49:39.909Z,23.04
2023-05-03T05:50:39.875Z,23.11
2023-05-03T05:51:40.030Z,23.15
2023-05-03T05:52:39.983Z,23.22
2023-05-03T05:53:40.069Z,23.28
2023-05-03T05:54:40.076Z,23.35
2023-05-03T05:55:40.099Z,23.35
2023-05-03T05:56:40.511Z,23.36
2023-05-03T05:57:40.258Z,23.38
2023-05-03T05:58:40.374Z,23.40
2023-05-03T05:59:40.273Z,23.42
2023-05-03T06:00:40.281Z,23.45
2023-05-03T06:01:40.388Z,23.48
2023-05-03T06:02:40.450Z,23.50
2023-05-03T06:03:40.543Z,23.54
2023-05-03T06:04:40.350Z,23.55
2023-05-03T06:05:40.463Z,23.58
2023-05-03T06:06:40.589Z,23.60
2023-05-03T06:07:40.334Z,23.63
2023-05-03T06:08:40.372Z,23.65
2023-05-03T06:09:40.326Z,23.67
2023-05-03T06:10:40.374Z,23.69
2023-05-03T06:11:40.323Z,23.72
2023-05-03T06:12:40.347Z,23.73
2023-05-03T06:13:40.541Z,23.74
2023-05-03T06:14:46.293Z,23.76
2023-05-03T06:15:41.301Z,23.77
2023-05-03T06:16:40.434Z,23.79
2023-05-03T06:17:40.340Z,23.81
2023-05-03T06:18:40.298Z,23.83
2023-05-03T06:19:40.309Z,23.84
2023-05-03T06:20:40.289Z,23.85
2023-05-03T06:21:40.308Z,23.87
2023-05-03T06:22:40.302Z,23.89
2023-05-03T06:23:40.325Z,23.90
2023-05-03T06:24:40.314Z,23.91
2023-05-03T06:25:40.257Z,23.92
2023-05-03T06:26:40.290Z,23.94
2023-05-03T06:27:40.237Z,23.96
2023-05-03T06:28:40.230Z,23.97
2023-05-03T06:29:40.235Z,23.98
2023-05-03T06:30:40.264Z,23.99
2023-05-03T06:31:40.314Z,24.00
2023-05-03T06:32:40.309Z,24.01
2023-05-03T06:33:40.371Z,24.02
2023-05-03T06:34:40.373Z,24.03
2023-05-03T06:35:40.401Z,24.03
2023-05-03T06:36:40.462Z,24.04
2023-05-03T06:37:40.523Z,24.06
2023-05-03T06:38:40.564Z,24.09
2023-05-03T06:39:40.619Z,24.11
2023-05-03T06:40:40.664Z,24.13
2023-05-03T06:41:40.737Z,24.10
2023-05-03T06:42:40.783Z,24.10
2023-05-03T06:43:40.860Z,24.11
2023-05-03T06:44:41.089Z,24.12
2023-05-03T06:45:40.976Z,24.14
2023-05-03T06:46:41.113Z,24.17
2023-05-03T06:47:41.635Z,24.17
2023-05-03T06:48:41.577Z,24.18
2023-05-03T06:49:41.112Z,24.20
2023-05-03T06:50:41.557Z,24.22
2023-05-03T06:51:41.510Z,24.23
2023-05-03T06:52:41.366Z,24.24
2023-05-03T06:53:41.554Z,24.27
2023-05-03T06:54:41.530Z,24.29
2023-05-03T06:55:41.429Z,24.32
2023-05-03T06:56:41.541Z,24.34
2023-05-03T06:57:41.566Z,24.36
2023-05-03T06:58:41.712Z,24.38
2023-05-03T06:59:41.641Z,24.39
2023-05-03T07:00:41.648Z,24.39
2023-05-03T07:01:41.760Z,24.41
2023-05-03T07:02:41.839Z,24.42
2023-05-03T07:03:42.228Z,24.44
2023-05-03T07:04:41.855Z,24.46
2023-05-03T07:05:41.838Z,24.48
2023-05-03T07:06:55.262Z,24.49
2023-05-03T07:07:42.893Z,24.50
2023-05-03T07:08:41.947Z,24.52
2023-05-03T07:09:43.561Z,24.53
2023-05-03T07:10:42.056Z,24.54
2023-05-03T07:11:42.021Z,24.52
2023-05-03T07:12:41.980Z,24.52
2023-05-03T07:13:41.900Z,24.54
2023-05-03T07:14:41.853Z,24.55
2023-05-03T07:15:41.881Z,24.56
2023-05-03T07:16:41.937Z,24.56
2023-05-03T07:17:41.843Z,24.57
2023-05-03T07:18:41.811Z,24.58
2023-05-03T07:19:41.794Z,24.59
2023-05-03T07:20:41.870Z,24.61
2023-05-03T07:21:41.827Z,24.60
2023-05-03T07:22:41.924Z,24.57
2023-05-03T07:23:42.080Z,24.55
2023-05-03T07:24:42.132Z,24.53
2023-05-03T07:25:41.948Z,24.53
2023-05-03T07:26:44.325Z,24.54
2023-05-03T07:27:41.966Z,24.55
2023-05-03T07:28:41.911Z,24.54
2023-05-03T07:29:41.981Z,24.55
2023-05-03T07:30:41.924Z,24.55
2023-05-03T07:31:41.911Z,24.54
2023-05-03T07:32:42.102Z,24.52
2023-05-03T07:33:42.029Z,24.44
2023-05-03T07:34:41.911Z,24.36
2023-05-03T07:35:41.922Z,24.23
2023-05-03T07:36:41.869Z,24.11
2023-05-03T07:37:41.878Z,23.98
2023-05-03T07:38:41.827Z,23.91
2023-05-03T07:39:41.843Z,23.89
2023-05-03T07:40:41.893Z,23.87
2023-05-03T07:41:41.849Z,23.90
2023-05-03T07:42:41.859Z,23.92
2023-05-03T07:43:42.037Z,23.96
2023-05-03T07:44:42.086Z,24.01
2023-05-03T07:45:41.857Z,24.04
2023-05-03T07:46:42.026Z,24.08
2023-05-03T07:47:42.170Z,24.14
2023-05-03T07:48:42.103Z,24.19
2023-05-03T07:49:41.791Z,24.25
2023-05-03T07:50:42.042Z,24.29
2023-05-03T07:51:42.048Z,24.33
2023-05-03T07:52:42.065Z,24.37
2023-05-03T07:53:41.737Z,24.41
2023-05-03T07:54:42.055Z,24.45
2023-05-03T07:55:41.714Z,24.48
2023-05-03T07:56:41.751Z,24.52
2023-05-03T07:57:41.756Z,24.55
2023-05-03T07:58:42.615Z,24.59
2023-05-03T07:59:41.767Z,24.60
2023-05-03T08:00:41.718Z,24.62
2023-05-03T08:01:41.745Z,24.64
2023-05-03T08:02:41.864Z,24.66
2023-05-03T08:03:41.848Z,24.68
2023-05-03T08:04:42.031Z,24.69
2023-05-03T08:05:42.065Z,24.69
2023-05-03T08:06:41.694Z,24.67
2023-05-03T08:07:41.638Z,24.67
2023-05-03T08:08:41.659Z,24.66
2023-05-03T08:09:41.678Z,24.64
2023-05-03T08:10:41.860Z,24.62
2023-05-03T08:11:43.950Z,24.62
2023-05-03T08:12:41.651Z,24.61
2023-05-03T08:13:41.601Z,24.59
2023-05-03T08:14:41.610Z,24.58
2023-05-03T08:15:41.677Z,24.59
2023-05-03T08:16:42.139Z,24.59
2023-05-03T08:17:41.675Z,24.58
2023-05-03T08:18:41.574Z,24.59
2023-05-03T08:19:41.608Z,24.60
2023-05-03T08:20:41.592Z,24.60
2023-05-03T08:21:41.671Z,24.61
2023-05-03T08:22:42.073Z,24.61
2023-05-03T08:23:41.569Z,24.59
2023-05-03T08:24:41.559Z,24.60
2023-05-03T08:25:41.682Z,24.61
2023-05-03T08:26:41.596Z,24.59
2023-05-03T08:27:41.605Z,24.55
2023-05-03T08:28:42.158Z,24.50
2023-05-03T08:29:41.518Z,24.46
2023-05-03T08:30:41.498Z,24.37
2023-05-03T08:31:41.581Z,24.30
2023-05-03T08:32:41.558Z,24.22
2023-05-03T08:33:42.049Z,24.13
2023-05-03T08:34:41.507Z,24.06
2023-05-03T08:35:41.441Z,23.99
2023-05-03T08:36:41.470Z,23.91
2023-05-03T08:37:41.457Z,23.82
2023-05-03T08:38:41.476Z,23.76
2023-05-03T08:39:41.445Z,23.72
2023-05-03T08:40:41.432Z,23.64
2023-05-03T08:41:41.596Z,23.62
2023-05-03T08:42:41.455Z,23.58
2023-05-03T08:43:41.421Z,23.57
2023-05-03T08:44:42.078Z,23.65
2023-05-03T08:45:41.414Z,23.75
2023-05-03T08:46:41.423Z,23.83
2023-05-03T08:47:41.350Z,23.92
2023-05-03T08:48:41.385Z,24.00
2023-05-03T08:49:41.399Z,24.07
2023-05-03T08:50:41.575Z,24.17
2023-05-03T08:51:41.382Z,24.25
2023-05-03T08:52:41.359Z,24.34
2023-05-03T08:53:41.371Z,24.43
2023-05-03T08:54:41.363Z,24.55
2023-05-03T08:55:41.577Z,24.62
2023-05-03T08:56:41.350Z,24.70
2023-05-03T08:57:41.472Z,24.76
2023-05-03T08:58:41.312Z,24.82
2023-05-03T08:59:41.294Z,24.87
2023-05-03T09:00:41.327Z,24.92
2023-05-03T09:01:41.376Z,24.97
2023-05-03T09:02:41.385Z,25.02
2023-05-03T09:03:41.337Z,25.10
2023-05-03T09:04:41.355Z,25.17
2023-05-03T09:05:41.492Z,25.19
2023-05-03T09:06:41.539Z,25.21
2023-05-03T09:07:41.326Z,25.26
2023-05-03T09:08:41.603Z,25.29
2023-05-03T09:09:41.370Z,25.32
2023-05-03T09:10:41.333Z,25.36
2023-05-03T09:11:41.386Z,25.38
2023-05-03T09:12:41.513Z,25.38
2023-05-03T09:13:41.392Z,25.40
2023-05-03T09:14:41.389Z,25.39
2023-05-03T09:15:41.354Z,25.41
2023-05-03T09:16:41.447Z,25.44
2023-05-03T09:17:41.528Z,25.47
2023-05-03T09:18:41.479Z,25.51
2023-05-03T09:19:41.556Z,25.53
2023-05-03T09:20:41.555Z,25.55
2023-05-03T09:21:42.127Z,25.58
2023-05-03T09:22:41.607Z,25.61
2023-05-03T09:23:41.681Z,25.60
2023-05-03T09:24:41.642Z,25.58
2023-05-03T09:25:41.731Z,25.59
2023-05-03T09:26:41.652Z,25.58
2023-05-03T09:27:41.775Z,25.59
2023-05-03T09:28:41.764Z,25.61
2023-05-03T09:29:41.816Z,25.63
2023-05-03T09:30:42.198Z,25.64
2023-05-03T09:31:41.834Z,25.57
2023-05-03T09:32:42.065Z,25.49
2023-05-03T09:33:41.808Z,25.44
2023-05-03T09:34:41.860Z,25.42
2023-05-03T09:35:42.123Z,25.41
2023-05-03T09:36:43.951Z,25.32
2023-05-03T09:37:42.070Z,25.18
2023-05-03T09:38:42.096Z,25.07
2023-05-03T09:39:42.072Z,24.97
2023-05-03T09:40:42.101Z,24.87
2023-05-03T09:41:42.164Z,24.76
2023-05-03T09:42:42.271Z,24.67
2023-05-03T09:43:42.260Z,24.58
2023-05-03T09:44:42.300Z,24.51
2023-05-03T09:45:42.679Z,24.48
2023-05-03T09:46:42.390Z,24.48
2023-05-03T09:47:42.495Z,24.50
2023-05-03T09:48:42.525Z,24.55
2023-05-03T09:49:42.613Z,24.59
2023-05-03T09:50:42.658Z,24.64
2023-05-03T09:51:42.659Z,24.68
2023-05-03T09:52:42.646Z,24.73
2023-05-03T09:53:43.566Z,24.78
2023-05-03T09:54:42.760Z,24.81
2023-05-03T09:55:43.141Z,24.84
2023-05-03T09:56:42.701Z,24.85
2023-05-03T09:57:42.734Z,24.90
2023-05-03T09:58:42.819Z,24.93
2023-05-03T09:59:42.724Z,24.97
2023-05-03T10:00:42.749Z,25.01
2023-05-03T10:01:42.859Z,25.03
2023-05-03T10:02:42.875Z,25.05
2023-05-03T10:03:43.676Z,25.08
2023-05-03T10:04:43.689Z,25.10
2023-05-03T10:05:43.147Z,25.13
2023-05-03T10:06:43.339Z,25.15
2023-05-03T10:07:42.781Z,25.17
2023-05-03T10:08:42.800Z,25.18
2023-05-03T10:09:43.106Z,25.19
2023-05-03T10:10:43.116Z,25.20
2023-05-03T10:11:42.789Z,25.19
2023-05-03T10:12:43.116Z,25.20
2023-05-03T10:13:42.792Z,25.20
2023-05-03T10:14:42.848Z,25.22
2023-05-03T10:15:42.851Z,25.23
2023-05-03T10:16:42.796Z,25.24
2023-05-03T10:17:48.413Z,25.25
2023-05-03T10:18:43.841Z,25.26
2023-05-03T10:19:43.139Z,25.27
2023-05-03T10:20:45.605Z,25.29
2023-05-03T10:21:43.300Z,25.30
2023-05-03T10:22:42.852Z,25.30
2023-05-03T10:23:42.802Z,25.30
2023-05-03T10:24:42.818Z,25.31
2023-05-03T10:25:43.137Z,25.30
2023-05-03T10:26:42.787Z,25.30
2023-05-03T10:27:42.822Z,25.32
2023-05-03T10:28:42.897Z,25.32
2023-05-03T10:29:42.778Z,25.31
2023-05-03T10:30:43.120Z,25.33
2023-05-03T10:31:42.917Z,25.34
2023-05-03T10:32:42.784Z,25.35
2023-05-03T10:33:42.873Z,25.35
2023-05-03T10:34:44.463Z,25.35
2023-05-03T10:35:42.764Z,25.36
2023-05-03T10:36:49.756Z,25.36
2023-05-03T10:37:44.637Z,25.35
2023-05-03T10:38:42.744Z,25.35
2023-05-03T10:39:43.284Z,25.35
2023-05-03T10:40:42.708Z,25.35
2023-05-03T10:41:42.789Z,25.33
2023-05-03T10:42:42.770Z,25.33
2023-05-03T10:43:42.777Z,25.32
2023-05-03T10:44:42.685Z,25.34
2023-05-03T10:45:43.106Z,25.35
2023-05-03T10:46:42.745Z,25.37
2023-05-03T10:47:42.803Z,25.38
2023-05-03T10:48:42.750Z,25.39
2023-05-03T10:49:42.775Z,25.38
2023-05-03T10:50:42.879Z,25.40
2023-05-03T10:51:42.938Z,25.40
2023-05-03T10:52:42.989Z,25.40
2023-05-03T10:53:43.008Z,25.39
2023-05-03T10:54:43.018Z,25.38
2023-05-03T10:55:43.077Z,25.38
2023-05-03T10:56:43.069Z,25.36
2023-05-03T10:57:43.129Z,25.37
2023-05-03T10:58:43.190Z,25.37
2023-05-03T10:59:43.257Z,25.37
2023-05-03T11:00:43.235Z,25.36
2023-05-03T11:01:43.286Z,25.31
2023-05-03T11:02:43.380Z,25.25
2023-05-03T11:03:43.259Z,25.22
2023-05-03T11:04:43.587Z,25.18
2023-05-03T11:05:43.253Z,25.13
2023-05-03T11:06:43.269Z,25.10
2023-05-03T11:07:43.285Z,25.07
2023-05-03T11:08:43.251Z,25.04
2023-05-03T11:09:43.271Z,25.01
2023-05-03T11:10:43.679Z,24.99
2023-05-03T11:11:43.396Z,24.97
2023-05-03T11:12:43.317Z,24.95
2023-05-03T11:13:43.367Z,24.93
2023-05-03T11:14:43.455Z,24.92
2023-05-03T11:15:43.356Z,24.91
2023-05-03T11:16:43.448Z,24.92
2023-05-03T11:17:43.576Z,24.95
2023-05-03T11:18:43.388Z,24.99
2023-05-03T11:19:43.662Z,25.01
2023-05-03T11:20:43.635Z,25.02
2023-05-03T11:21:44.403Z,25.06
2023-05-03T11:22:44.175Z,25.09
2023-05-03T11:23:43.482Z,25.12
2023-05-03T11:24:43.564Z,25.13
2023-05-03T11:25:43.499Z,25.14
2023-05-03T11:26:43.496Z,25.14
2023-05-03T11:27:43.615Z,25.14
2023-05-03T11:28:43.547Z,25.13
2023-05-03T11:29:43.448Z,25.13
2023-05-03T11:30:43.438Z,25.12
2023-05-03T11:31:43.653Z,25.11
2023-05-03T11:32:43.590Z,25.11
2023-05-03T11:33:43.459Z,25.11
2023-05-03T11:34:43.473Z,25.09
2023-05-03T11:35:43.440Z,25.07
2023-05-03T11:36:43.438Z,25.06
2023-05-03T11:37:43.483Z,25.05
2023-05-03T11:38:43.490Z,25.05
2023-05-03T11:39:43.494Z,25.05
2023-05-03T11:40:43.490Z,25.05
2023-05-03T11:41:43.525Z,25.05
2023-05-03T11:42:43.503Z,25.04
2023-05-03T11:43:43.497Z,25.04
2023-05-03T11:44:43.536Z,25.02
2023-05-03T11:45:43.576Z,25.03
2023-05-03T11:46:43.631Z,25.03
2023-05-03T11:47:43.609Z,25.01
2023-05-03T11:48:43.538Z,25.02
2023-05-03T11:49:43.533Z,24.99
2023-05-03T11:50:43.554Z,24.99
2023-05-03T11:51:46.683Z,24.97
2023-05-03T11:52:43.671Z,24.96
2023-05-03T11:53:43.604Z,24.95
2023-05-03T11:54:43.578Z,24.95
2023-05-03T11:55:43.607Z,24.94
2023-05-03T11:56:43.519Z,24.93
2023-05-03T11:57:43.537Z,24.93
2023-05-03T11:58:43.540Z,24.93
2023-05-03T11:59:43.506Z,24.93
2023-05-03T12:00:43.512Z,24.91
2023-05-03T12:01:43.591Z,24.91
2023-05-03T12:02:43.699Z,24.89
2023-05-03T12:03:43.621Z,24.89
2023-05-03T12:04:44.407Z,24.88
2023-05-03T12:05:43.814Z,24.87
2023-05-03T12:06:45.137Z,24.87
2023-05-03T12:07:44.575Z,24.87
2023-05-03T12:08:45.056Z,24.85
2023-05-03T12:09:45.285Z,24.85
2023-05-03T12:10:45.430Z,24.83
2023-05-03T12:11:45.142Z,24.82
2023-05-03T12:12:48.695Z,24.81
2023-05-03T12:13:44.628Z,24.80
2023-05-03T12:14:43.558Z,24.80
2023-05-03T12:15:43.910Z,24.81
2023-05-03T12:16:43.615Z,24.82
2023-05-03T12:17:45.291Z,24.83
2023-05-03T12:18:43.570Z,24.84
2023-05-03T12:19:44.430Z,24.84
2023-05-03T12:21:29.184Z,24.84
2023-05-03T12:21:51.857Z,24.85
2023-05-03T12:22:45.268Z,24.84
2023-05-03T12:23:45.646Z,24.85
2023-05-03T12:24:45.021Z,24.86
2023-05-03T12:25:44.630Z,24.86
2023-05-03T12:26:43.615Z,24.86
2023-05-03T12:27:44.876Z,24.87
2023-05-03T12:28:43.801Z,24.87
2023-05-03T12:29:46.798Z,24.87
2023-05-03T12:30:46.031Z,24.88
2023-05-03T12:31:44.305Z,24.88
2023-05-03T12:32:44.436Z,24.89
2023-05-03T12:33:43.933Z,24.89
2023-05-03T12:34:46.161Z,24.89
2023-05-03T12:35:46.951Z,24.89
2023-05-03T12:36:44.088Z,24.89
2023-05-03T12:37:44.095Z,24.89
2023-05-03T12:38:43.937Z,24.89
2023-05-03T12:39:45.923Z,24.89
2023-05-03T12:40:44.744Z,24.89
2023-05-03T12:42:06.103Z,24.89
2023-05-03T12:42:44.754Z,24.89
2023-05-03T12:43:43.884Z,24.90
2023-05-03T12:44:43.670Z,24.90
2023-05-03T12:45:46.914Z,24.90
2023-05-03T12:46:45.456Z,24.89
2023-05-03T12:47:44.654Z,24.90
2023-05-03T12:48:46.442Z,24.89
2023-05-03T12:49:46.054Z,24.90
2023-05-03T12:50:45.493Z,24.89
2023-05-03T12:51:44.104Z,24.89
2023-05-03T12:52:45.634Z,24.89